createdAt,value
2018-10-05T00:01:14.259Z,65.10
2018-10-05T00:03:43.050Z,65.30
2018-10-05T00:06:11.876Z,65.40
2018-10-05T00:08:40.687Z,65.40
2018-10-05T00:11:09.516Z,65.70
2018-10-05T00:13:38.361Z,65.70
2018-10-05T00:16:07.444Z,66.00
2018-10-05T00:18:36.356Z,65.80
2018-10-05T00:21:05.182Z,66.00
2018-10-05T00:23:34.365Z,66.10
2018-10-05T00:26:03.160Z,66.20
2018-10-05T00:28:31.959Z,66.10
2018-10-05T00:31:00.775Z,66.40
2018-10-05T00:33:29.587Z,66.30
2018-10-05T00:35:58.971Z,66.40
2018-10-05T00:38:27.816Z,66.30
2018-10-05T00:41:01.212Z,66.40
2018-10-05T00:43:31.522Z,66.50
2018-10-05T00:46:00.723Z,66.30
2018-10-05T00:48:30.022Z,66.20
2018-10-05T00:50:58.833Z,66.30
2018-10-05T00:53:27.760Z,66.20
2018-10-05T00:55:56.432Z,66.20
2018-10-05T00:58:25.268Z,66.10
2018-10-05T01:00:54.075Z,66.10
2018-10-05T01:03:22.865Z,66.10
2018-10-05T01:05:51.859Z,66.00
2018-10-05T01:08:20.642Z,66.70
2018-10-05T01:10:49.473Z,66.00
2018-10-05T01:13:18.285Z,65.90
2018-10-05T01:15:47.092Z,66.50
2018-10-05T01:18:15.906Z,65.70
2018-10-05T01:20:44.803Z,65.70
2018-10-05T01:23:13.725Z,65.70
2018-10-05T01:25:42.531Z,65.60
2018-10-05T01:28:11.448Z,65.60
2018-10-05T01:30:40.259Z,65.70
2018-10-05T01:33:09.194Z,65.70
2018-10-05T01:35:38.007Z,65.70
2018-10-05T01:38:06.791Z,65.70
2018-10-05T01:40:35.599Z,65.80
2018-10-05T01:43:04.411Z,65.70
2018-10-05T01:45:33.227Z,65.70
2018-10-05T01:48:02.015Z,65.70
2018-10-05T01:50:31.683Z,65.80
2018-10-05T01:53:00.492Z,65.80
2018-10-05T01:55:29.315Z,65.70
2018-10-05T01:57:58.119Z,65.80
2018-10-05T02:00:27.035Z,65.80
2018-10-05T02:02:55.888Z,65.80
2018-10-05T02:05:24.759Z,65.60
2018-10-05T02:07:53.578Z,65.60
2018-10-05T02:10:22.507Z,65.60
2018-10-05T02:12:51.480Z,65.50
2018-10-05T02:15:20.303Z,65.60
2018-10-05T02:17:49.118Z,65.60
2018-10-05T02:20:17.965Z,65.50
2018-10-05T02:22:46.773Z,65.50
2018-10-05T02:25:15.596Z,65.50
2018-10-05T02:27:44.407Z,65.40
2018-10-05T02:30:13.221Z,65.40
2018-10-05T02:32:42.060Z,65.30
2018-10-05T02:35:11.321Z,65.20
2018-10-05T02:37:40.115Z,65.20
2018-10-05T02:40:09.362Z,65.20
2018-10-05T02:42:38.239Z,65.10
2018-10-05T02:45:08.995Z,65.00
2018-10-05T02:47:37.794Z,65.00
2018-10-05T02:50:07.778Z,65.00
2018-10-05T02:52:37.048Z,65.00
2018-10-05T02:55:05.877Z,65.00
2018-10-05T02:57:34.910Z,64.70
2018-10-05T03:00:03.719Z,64.80
2018-10-05T03:02:33.719Z,64.70
2018-10-05T03:05:02.608Z,64.80
2018-10-05T03:07:32.114Z,64.60
2018-10-05T03:10:01.899Z,64.60
2018-10-05T03:12:30.689Z,64.60
2018-10-05T03:14:59.503Z,64.50
2018-10-05T03:17:28.308Z,64.50
2018-10-05T03:19:57.264Z,64.30
2018-10-05T03:22:26.051Z,64.40
2018-10-05T03:24:54.853Z,64.30
2018-10-05T03:27:23.702Z,64.40
2018-10-05T03:29:52.475Z,64.30
2018-10-05T03:32:21.260Z,64.40
2018-10-05T03:34:50.072Z,64.10
2018-10-05T03:37:18.877Z,63.90
2018-10-05T03:39:47.672Z,63.70
2018-10-05T03:42:16.798Z,63.80
2018-10-05T03:44:45.594Z,63.80
2018-10-05T03:47:14.381Z,63.90
2018-10-05T03:49:43.201Z,63.60
2018-10-05T03:52:11.993Z,63.90
2018-10-05T03:54:41.159Z,63.90
2018-10-05T03:57:09.991Z,63.90
2018-10-05T03:59:38.789Z,63.60
2018-10-05T04:02:07.741Z,63.60
2018-10-05T04:04:36.673Z,63.50
2018-10-05T04:07:05.467Z,63.40
2018-10-05T04:09:34.279Z,63.50
2018-10-05T04:12:03.092Z,63.40
2018-10-05T04:14:31.915Z,63.30
2018-10-05T04:17:00.713Z,63.10
2018-10-05T04:19:29.541Z,63.20
2018-10-05T04:21:58.333Z,63.10
2018-10-05T04:24:27.138Z,63.00
2018-10-05T04:26:56.331Z,62.80
2018-10-05T04:29:25.158Z,62.90
2018-10-05T04:31:53.976Z,63.30
2018-10-05T04:34:22.801Z,62.90
2018-10-05T04:36:51.611Z,62.90
2018-10-05T04:39:20.416Z,63.50
2018-10-05T04:41:49.246Z,62.70
2018-10-05T04:44:18.089Z,62.70
2018-10-05T04:46:46.893Z,62.70
2018-10-05T04:49:15.810Z,62.80
2018-10-05T04:51:44.667Z,62.70
2018-10-05T04:54:13.750Z,62.50
2018-10-05T04:56:43.275Z,62.50
2018-10-05T04:59:12.116Z,62.50
2018-10-05T05:01:40.919Z,62.50
2018-10-05T05:04:09.735Z,62.40
2018-10-05T05:06:38.596Z,62.50
2018-10-05T05:09:08.184Z,62.40
2018-10-05T05:11:37.393Z,62.30
2018-10-05T05:14:06.186Z,62.20
2018-10-05T05:16:34.998Z,62.20
2018-10-05T05:19:04.070Z,62.20
2018-10-05T05:21:32.879Z,62.20
2018-10-05T05:24:01.669Z,62.50
2018-10-05T05:26:30.461Z,62.20
2018-10-05T05:28:59.250Z,62.10
2018-10-05T05:31:28.053Z,62.80
2018-10-05T05:33:57.258Z,62.20
2018-10-05T05:36:26.050Z,62.20
2018-10-05T05:38:54.932Z,62.20
2018-10-05T05:41:23.775Z,62.20
2018-10-05T05:43:52.581Z,62.00
2018-10-05T05:46:21.467Z,62.20
2018-10-05T05:48:50.293Z,62.30
2018-10-05T05:51:19.154Z,62.20
2018-10-05T05:53:47.973Z,62.20
2018-10-05T05:56:17.114Z,62.10
2018-10-05T05:58:46.271Z,62.00
2018-10-05T06:01:15.328Z,62.00
2018-10-05T06:03:44.127Z,61.90
2018-10-05T06:06:12.958Z,61.80
2018-10-05T06:08:41.787Z,61.80
2018-10-05T06:11:10.634Z,61.90
2018-10-05T06:13:39.565Z,61.80
2018-10-05T06:16:08.504Z,61.60
2018-10-05T06:18:37.426Z,61.30
2018-10-05T06:21:06.456Z,61.20
2018-10-05T06:23:35.242Z,61.10
2018-10-05T06:26:04.116Z,61.10
2018-10-05T06:28:32.941Z,61.00
2018-10-05T06:31:01.976Z,61.00
2018-10-05T06:33:30.687Z,61.00
2018-10-05T06:35:59.478Z,61.10
2018-10-05T06:38:28.286Z,61.00
2018-10-05T06:40:57.215Z,61.20
2018-10-05T06:43:26.031Z,61.30
2018-10-05T06:45:54.874Z,61.10
2018-10-05T06:48:23.832Z,61.00
2018-10-05T06:50:52.665Z,60.90
2018-10-05T06:53:21.546Z,61.00
2018-10-05T06:55:50.317Z,60.70
2018-10-05T06:58:19.185Z,60.60
2018-10-05T07:00:48.302Z,60.40
2018-10-05T07:03:17.430Z,60.40
2018-10-05T07:05:46.255Z,60.20
2018-10-05T07:08:15.079Z,60.20
2018-10-05T07:10:43.933Z,60.00
2018-10-05T07:13:12.772Z,60.00
2018-10-05T07:15:41.642Z,59.80
2018-10-05T07:18:10.464Z,59.70
2018-10-05T07:20:39.281Z,59.70
2018-10-05T07:23:08.237Z,59.60
2018-10-05T07:25:37.285Z,59.70
2018-10-05T07:28:06.169Z,59.50
2018-10-05T07:30:35.090Z,59.50
2018-10-05T07:33:03.983Z,59.50
2018-10-05T07:35:32.781Z,59.50
2018-10-05T07:38:01.593Z,59.20
2018-10-05T07:40:30.413Z,59.20
2018-10-05T07:42:59.234Z,59.10
2018-10-05T07:45:28.047Z,59.00
2018-10-05T07:47:57.719Z,59.10
2018-10-05T07:50:26.529Z,58.80
2018-10-05T07:52:55.345Z,58.70
2018-10-05T07:55:24.268Z,58.60
2018-10-05T07:57:53.079Z,58.50
2018-10-05T08:00:21.921Z,58.40
2018-10-05T08:02:51.237Z,58.20
2018-10-05T08:05:20.063Z,58.10
2018-10-05T08:07:48.909Z,58.00
2018-10-05T08:10:18.018Z,57.80
2018-10-05T08:12:46.841Z,58.00
2018-10-05T08:15:15.630Z,57.80
2018-10-05T08:17:44.471Z,57.30
2018-10-05T08:20:13.282Z,57.50
2018-10-05T08:22:42.106Z,57.20
2018-10-05T08:25:11.550Z,57.00
2018-10-05T08:27:40.374Z,56.80
2018-10-05T08:30:09.860Z,56.70
2018-10-05T08:32:39.578Z,56.70
2018-10-05T08:35:08.638Z,56.40
2018-10-05T08:37:37.894Z,56.50
2018-10-05T08:40:09.759Z,56.40
2018-10-05T08:42:38.529Z,55.80
2018-10-05T08:45:09.069Z,55.60
2018-10-05T08:47:37.997Z,55.70
2018-10-05T08:50:08.133Z,55.80
2018-10-05T08:52:36.963Z,55.60
2018-10-05T08:55:05.971Z,55.40
2018-10-05T08:57:34.799Z,55.20
2018-10-05T09:00:03.663Z,54.90
2018-10-05T09:02:32.487Z,54.80
2018-10-05T09:05:01.868Z,54.80
2018-10-05T09:07:30.684Z,54.60
2018-10-05T09:09:59.554Z,54.40
2018-10-05T09:12:28.352Z,54.20
2018-10-05T09:14:57.167Z,53.90
2018-10-05T09:17:26.298Z,53.70
2018-10-05T09:19:55.163Z,53.80
2018-10-05T09:22:24.014Z,53.70
2018-10-05T09:24:52.869Z,53.50
2018-10-05T09:27:21.708Z,53.40
2018-10-05T09:29:51.195Z,52.90
2018-10-05T09:32:20.349Z,52.80
2018-10-05T09:34:49.150Z,52.70
2018-10-05T09:37:17.975Z,52.30
2018-10-05T09:39:47.038Z,52.20
2018-10-05T09:42:15.875Z,51.70
2018-10-05T09:44:44.743Z,52.00
2018-10-05T09:47:13.606Z,51.50
2018-10-05T09:49:42.398Z,51.30
2018-10-05T09:52:11.246Z,51.30
2018-10-05T09:54:40.044Z,51.20
2018-10-05T09:57:08.874Z,51.20
2018-10-05T09:59:37.714Z,51.00
2018-10-05T10:02:12.042Z,50.90
2018-10-05T10:04:40.862Z,51.10
2018-10-05T10:07:10.051Z,51.00
2018-10-05T10:09:38.882Z,50.90
2018-10-05T10:12:07.724Z,50.80
2018-10-05T10:14:36.558Z,50.10
2018-10-05T10:17:05.435Z,49.90
2018-10-05T10:19:34.343Z,49.90
2018-10-05T10:22:03.192Z,50.10
2018-10-05T10:24:32.250Z,49.90
2018-10-05T10:27:01.094Z,49.50
2018-10-05T10:29:30.002Z,49.40
2018-10-05T10:31:58.781Z,49.20
2018-10-05T10:34:27.725Z,49.30
2018-10-05T10:36:56.574Z,49.10
2018-10-05T10:39:25.379Z,48.80
2018-10-05T10:41:54.254Z,48.70
2018-10-05T10:44:23.126Z,48.60
2018-10-05T10:46:52.214Z,48.50
2018-10-05T10:49:21.042Z,48.30
2018-10-05T10:51:49.931Z,48.10
2018-10-05T10:54:18.816Z,48.00
2018-10-05T10:56:47.654Z,48.00
2018-10-05T10:59:16.459Z,47.70
2018-10-05T11:01:45.291Z,47.80
2018-10-05T11:04:14.172Z,47.50
2018-10-05T11:06:42.961Z,47.90
2018-10-05T11:09:12.454Z,47.80
2018-10-05T11:11:41.277Z,47.70
2018-10-05T11:14:10.088Z,47.40
2018-10-05T11:16:39.146Z,47.10
2018-10-05T11:19:08.778Z,47.00
2018-10-05T11:21:37.878Z,46.70
2018-10-05T11:24:08.167Z,46.80
2018-10-05T11:26:37.046Z,47.20
2018-10-05T11:29:05.841Z,46.80
2018-10-05T11:31:34.777Z,46.60
2018-10-05T11:34:03.599Z,46.40
2018-10-05T11:36:32.409Z,46.20
2018-10-05T11:39:01.259Z,46.50
2018-10-05T11:41:30.099Z,46.20
2018-10-05T11:43:58.936Z,46.30
2018-10-05T11:46:27.785Z,46.50
2018-10-05T11:48:56.555Z,46.30
2018-10-05T11:51:25.482Z,46.50
2018-10-05T11:53:54.626Z,45.80
2018-10-05T11:56:23.422Z,45.50
2018-10-05T11:58:52.223Z,45.70
2018-10-05T12:01:21.624Z,45.70
2018-10-05T12:03:50.530Z,45.80
2018-10-05T12:06:19.424Z,45.60
2018-10-05T12:08:48.271Z,45.40
2018-10-05T12:11:17.619Z,45.00
2018-10-05T12:13:46.445Z,44.60
2018-10-05T12:16:15.561Z,44.60
2018-10-05T12:18:44.433Z,44.50
2018-10-05T12:21:13.265Z,44.60
2018-10-05T12:23:42.960Z,44.40
2018-10-05T12:26:11.770Z,44.20
2018-10-05T12:28:40.567Z,44.10
2018-10-05T12:31:09.405Z,44.00
2018-10-05T12:33:38.335Z,44.10
2018-10-05T12:36:07.227Z,43.90
2018-10-05T12:38:36.594Z,43.80
2018-10-05T12:41:05.422Z,43.70
2018-10-05T12:43:34.256Z,43.60
2018-10-05T12:46:03.094Z,43.30
2018-10-05T12:48:31.905Z,43.20
2018-10-05T12:51:00.806Z,43.00
2018-10-05T12:53:29.623Z,43.20
2018-10-05T12:55:58.524Z,43.90
2018-10-05T12:58:27.415Z,43.10
2018-10-05T13:00:56.420Z,43.00
2018-10-05T13:03:25.400Z,43.10
2018-10-05T13:05:54.251Z,42.80
2018-10-05T13:08:23.134Z,43.10
2018-10-05T13:10:51.993Z,43.50
2018-10-05T13:13:21.273Z,43.00
2018-10-05T13:15:50.143Z,43.10
2018-10-05T13:18:18.959Z,42.70
2018-10-05T13:20:47.780Z,42.90
2018-10-05T13:23:16.774Z,43.00
2018-10-05T13:25:45.647Z,42.80
2018-10-05T13:28:14.499Z,42.90
2018-10-05T13:30:43.351Z,42.50
2018-10-05T13:33:12.170Z,42.60
2018-10-05T13:35:41.004Z,42.50
2018-10-05T13:38:09.856Z,42.80
2018-10-05T13:40:38.786Z,43.40
2018-10-05T13:43:08.082Z,42.80
2018-10-05T13:45:37.279Z,43.50
2018-10-05T13:48:06.370Z,42.90
2018-10-05T13:50:35.196Z,42.80
2018-10-05T13:53:04.044Z,42.80
2018-10-05T13:55:32.918Z,42.90
2018-10-05T13:58:01.727Z,42.40
2018-10-05T14:00:30.680Z,42.90
2018-10-05T14:02:59.542Z,42.80
2018-10-05T14:05:28.410Z,43.00
2018-10-05T14:07:57.616Z,42.70
2018-10-05T14:10:26.490Z,42.60
2018-10-05T14:12:55.329Z,42.50
2018-10-05T14:15:24.667Z,42.30
2018-10-05T14:17:53.465Z,42.80
2018-10-05T14:20:22.389Z,43.40
2018-10-05T14:22:51.368Z,43.10
2018-10-05T14:25:20.276Z,43.00
2018-10-05T14:27:49.070Z,42.60
2018-10-05T14:30:18.342Z,42.50
2018-10-05T14:32:49.305Z,42.40
2018-10-05T14:35:18.281Z,42.40
2018-10-05T14:37:47.429Z,42.70
2018-10-05T14:40:16.265Z,42.40
2018-10-05T14:42:45.202Z,42.40
2018-10-05T14:45:14.031Z,42.40
2018-10-05T14:47:42.871Z,42.50
2018-10-05T14:50:11.793Z,42.50
2018-10-05T14:52:41.101Z,43.00
2018-10-05T14:55:09.955Z,42.50
2018-10-05T14:57:38.802Z,42.90
2018-10-05T15:00:08.781Z,42.80
2018-10-05T15:02:37.646Z,42.70
2018-10-05T15:05:08.425Z,43.20
2018-10-05T15:07:37.324Z,42.60
2018-10-05T15:10:06.193Z,42.90
2018-10-05T15:12:35.099Z,42.40
2018-10-05T15:15:04.425Z,42.40
2018-10-05T15:17:33.748Z,42.40
2018-10-05T15:20:02.566Z,42.50
2018-10-05T15:22:31.432Z,42.40
2018-10-05T15:25:00.295Z,42.50
2018-10-05T15:27:29.121Z,42.70
2018-10-05T15:29:58.023Z,42.90
2018-10-05T15:32:26.842Z,42.80
2018-10-05T15:34:55.705Z,43.30
2018-10-05T15:37:24.979Z,42.60
2018-10-05T15:39:53.819Z,42.80
2018-10-05T15:42:22.670Z,42.80
2018-10-05T15:44:51.503Z,42.90
2018-10-05T15:47:20.318Z,43.00
2018-10-05T15:49:49.217Z,43.30
2018-10-05T15:52:18.068Z,43.20
2018-10-05T15:54:46.883Z,43.40
2018-10-05T15:57:15.762Z,43.60
2018-10-05T15:59:45.055Z,43.50
2018-10-05T16:02:13.950Z,43.40
2018-10-05T16:04:42.777Z,43.40
2018-10-05T16:07:11.631Z,43.60
2018-10-05T16:09:40.449Z,43.70
2018-10-05T16:12:09.279Z,43.70
2018-10-05T16:14:38.150Z,43.70
2018-10-05T16:17:07.002Z,43.80
2018-10-05T16:19:36.150Z,44.00
2018-10-05T16:22:05.123Z,44.00
2018-10-05T16:24:42.931Z,44.00
2018-10-05T16:27:12.425Z,44.20
2018-10-05T16:29:41.243Z,44.10
2018-10-05T16:32:11.236Z,44.40
2018-10-05T16:34:40.106Z,44.50
2018-10-05T16:37:08.931Z,44.50
2018-10-05T16:39:37.730Z,44.50
2018-10-05T16:42:06.761Z,44.60
2018-10-05T16:44:35.593Z,44.70
2018-10-05T16:47:04.424Z,44.80
2018-10-05T16:49:33.303Z,45.00
2018-10-05T16:52:02.317Z,44.90
2018-10-05T16:54:31.132Z,45.10
2018-10-05T16:57:00.006Z,45.00
2018-10-05T16:59:28.826Z,45.00
2018-10-05T17:01:57.779Z,45.20
2018-10-05T17:04:26.892Z,45.40
2018-10-05T17:06:55.722Z,45.30
2018-10-05T17:09:24.546Z,45.50
2018-10-05T17:11:53.529Z,45.50
2018-10-05T17:14:22.382Z,45.60
2018-10-05T17:16:51.210Z,45.70
2018-10-05T17:19:20.081Z,46.00
2018-10-05T17:21:49.548Z,46.00
2018-10-05T17:24:18.476Z,46.20
2018-10-05T17:26:47.409Z,46.30
2018-10-05T17:29:16.260Z,46.40
2018-10-05T17:31:45.098Z,46.50
2018-10-05T17:34:13.944Z,46.60
2018-10-05T17:36:42.782Z,46.80
2018-10-05T17:39:11.874Z,47.00
2018-10-05T17:41:40.757Z,47.10
2018-10-05T17:44:09.578Z,47.20
2018-10-05T17:46:38.374Z,47.40
2018-10-05T17:49:07.744Z,47.70
2018-10-05T17:51:36.566Z,48.00
2018-10-05T17:54:05.423Z,48.10
2018-10-05T17:56:34.287Z,48.30
2018-10-05T17:59:03.131Z,48.30
2018-10-05T18:01:31.945Z,48.60
2018-10-05T18:04:00.838Z,48.60
2018-10-05T18:06:29.690Z,48.90
2018-10-05T18:08:58.545Z,49.00
2018-10-05T18:11:27.733Z,49.10
2018-10-05T18:13:56.528Z,49.10
2018-10-05T18:16:25.347Z,49.30
2018-10-05T18:18:54.175Z,49.60
2018-10-05T18:21:23.047Z,50.10
2018-10-05T18:23:52.130Z,49.70
2018-10-05T18:26:20.994Z,49.80
2018-10-05T18:28:49.834Z,50.00
2018-10-05T18:31:18.673Z,50.10
2018-10-05T18:33:47.577Z,50.20
2018-10-05T18:36:16.373Z,50.30
2018-10-05T18:38:45.215Z,50.40
2018-10-05T18:41:14.102Z,50.00
2018-10-05T18:43:42.933Z,50.70
2018-10-05T18:46:12.036Z,50.80
2018-10-05T18:48:41.036Z,50.80
2018-10-05T18:51:09.933Z,51.00
2018-10-05T18:53:38.720Z,51.20
2018-10-05T18:56:24.957Z,51.10
2018-10-05T18:58:53.803Z,51.30
2018-10-05T19:01:22.644Z,51.20
2018-10-05T19:03:51.677Z,51.20
2018-10-05T19:06:20.538Z,51.40
2018-10-05T19:08:49.353Z,51.50
2018-10-05T19:11:18.219Z,51.60
2018-10-05T19:13:47.149Z,51.50
2018-10-05T19:16:16.024Z,51.70
2018-10-05T19:18:44.808Z,51.70
2018-10-05T19:21:13.641Z,51.90
2018-10-05T19:23:42.465Z,51.80
2018-10-05T19:26:14.978Z,52.00
2018-10-05T19:28:43.831Z,52.00
2018-10-05T19:31:12.659Z,51.90
2018-10-05T19:33:41.487Z,52.00
2018-10-05T19:36:10.381Z,52.10
2018-10-05T19:38:39.165Z,52.20
2018-10-05T19:41:07.999Z,52.20
2018-10-05T19:43:36.828Z,52.30
2018-10-05T19:46:05.720Z,52.30
2018-10-05T19:48:34.672Z,52.50
2018-10-05T19:51:03.511Z,52.50
2018-10-05T19:53:32.396Z,52.60
2018-10-05T19:56:01.191Z,52.80
2018-10-05T19:58:30.145Z,53.30
2018-10-05T20:00:58.996Z,52.90
2018-10-05T20:03:27.842Z,52.80
2018-10-05T20:05:56.638Z,52.90
2018-10-05T20:08:25.527Z,53.00
2018-10-05T20:10:54.669Z,53.00
2018-10-05T20:13:23.544Z,53.00
2018-10-05T20:15:52.366Z,53.10
2018-10-05T20:18:21.298Z,53.20
2018-10-05T20:20:50.070Z,53.30
2018-10-05T20:23:18.873Z,53.40
2018-10-05T20:25:47.765Z,53.50
2018-10-05T20:28:17.048Z,53.70
2018-10-05T20:30:45.905Z,53.70
2018-10-05T20:33:14.735Z,53.70
2018-10-05T20:35:43.545Z,53.80
2018-10-05T20:38:12.384Z,53.90
2018-10-05T20:40:41.231Z,53.90
2018-10-05T20:43:10.066Z,54.00
2018-10-05T20:45:38.882Z,53.90
2018-10-05T20:48:08.072Z,54.00
2018-10-05T20:50:36.879Z,54.80
2018-10-05T20:53:05.791Z,54.10
2018-10-05T20:55:35.665Z,54.30
2018-10-05T20:58:04.479Z,54.40
2018-10-05T21:00:33.341Z,54.50
2018-10-05T21:03:02.224Z,54.40
2018-10-05T21:05:31.043Z,54.40
2018-10-05T21:07:59.926Z,54.40
2018-10-05T21:10:28.913Z,54.60
2018-10-05T21:13:00.751Z,54.70
2018-10-05T21:15:29.674Z,54.80
2018-10-05T21:17:58.493Z,54.70
2018-10-05T21:20:27.316Z,54.90
2018-10-05T21:22:56.134Z,54.90
2018-10-05T21:25:25.001Z,55.10
2018-10-05T21:27:53.872Z,55.10
2018-10-05T21:30:23.146Z,55.20
2018-10-05T21:32:52.127Z,55.30
2018-10-05T21:35:20.879Z,55.40
2018-10-05T21:37:49.794Z,55.30
2018-10-05T21:40:18.725Z,55.40
2018-10-05T21:42:47.690Z,55.50
2018-10-05T21:45:16.538Z,55.60
2018-10-05T21:47:45.559Z,55.60
2018-10-05T21:50:14.392Z,56.20
2018-10-05T21:52:43.205Z,55.80
2018-10-05T21:55:12.091Z,55.80
2018-10-05T21:57:40.921Z,55.90
2018-10-05T22:00:09.774Z,55.80
2018-10-05T22:02:38.641Z,56.00
2018-10-05T22:05:08.640Z,56.00
2018-10-05T22:07:37.475Z,56.20
2018-10-05T22:10:06.651Z,56.20
2018-10-05T22:12:35.410Z,56.20
2018-10-05T22:15:04.240Z,57.00
2018-10-05T22:17:33.129Z,56.30
2018-10-05T22:20:01.990Z,56.40
2018-10-05T22:22:30.770Z,56.40
2018-10-05T22:24:59.580Z,56.50
2018-10-05T22:27:28.393Z,56.50
2018-10-05T22:29:57.263Z,56.50
2018-10-05T22:32:27.219Z,56.50
2018-10-05T22:34:56.092Z,56.60
2018-10-05T22:37:27.936Z,56.70
2018-10-05T22:39:56.733Z,56.80
2018-10-05T22:42:25.591Z,56.70
2018-10-05T22:44:55.236Z,56.80
2018-10-05T22:47:24.025Z,56.80
2018-10-05T22:49:53.390Z,57.00
2018-10-05T22:52:23.520Z,56.90
2018-10-05T22:54:52.321Z,57.00
2018-10-05T22:57:21.159Z,57.00
2018-10-05T22:59:49.957Z,57.10
2018-10-05T23:02:18.872Z,57.20
2018-10-05T23:04:47.696Z,57.30
2018-10-05T23:07:16.502Z,57.30
2018-10-05T23:09:45.380Z,57.40
2018-10-05T23:12:14.210Z,57.50
2018-10-05T23:14:43.134Z,57.60
2018-10-05T23:17:11.988Z,57.80
2018-10-05T23:19:40.831Z,57.70
2018-10-05T23:22:09.659Z,58.50
2018-10-05T23:24:38.619Z,57.90
2018-10-05T23:27:07.532Z,58.30
2018-10-05T23:29:36.385Z,58.10
2018-10-05T23:32:05.202Z,58.10
2018-10-05T23:34:34.386Z,58.10
2018-10-05T23:37:03.832Z,58.30
2018-10-05T23:39:32.882Z,58.20
2018-10-05T23:42:02.055Z,58.30
2018-10-05T23:44:31.119Z,58.40
2018-10-05T23:47:00.067Z,58.40
2018-10-05T23:49:28.902Z,58.60
2018-10-05T23:51:59.651Z,58.60
2018-10-05T23:54:28.495Z,58.70
2018-10-05T23:56:57.312Z,58.70
2018-10-05T23:59:26.446Z,58.70
